Time;durP1;ratioP1;P1;durP2;ratioP2;P2;SDS_P1;SDS_P2;PMS_P1;PMS_P2;Temp;Humidity;BMP_temperature;BMP_pressure;BME280_temperature;BME280_humidity;BME280_pressure;Samples;Min_cycle;Max_cycle;Signal;HPM_P1;HPM_P2
2021/12/12 00:00:04;;;;;;;42.50;23.30;;;0.40;99.90;;;;;;5118935;28;20437;-68
2021/12/12 00:02:45;;;;;;;43.77;23.30;;;0.50;99.90;;;;;;5119937;28;20493;-69
2021/12/12 00:05:16;;;;;;;47.23;25.20;;;0.40;99.90;;;;;;5118851;28;20514;-68
2021/12/12 00:07:43;;;;;;;44.47;24.67;;;0.30;99.90;;;;;;5119670;28;20451;-69
2021/12/12 00:10:15;;;;;;;45.90;24.27;;;0.30;99.90;;;;;;5118922;28;20463;-68
2021/12/12 00:12:45;;;;;;;47.57;24.27;;;0.30;99.90;;;;;;5117959;28;20452;-69
2021/12/12 00:15:13;;;;;;;38.87;25.67;;;0.20;99.90;;;;;;5118346;28;20576;-68
2021/12/12 00:17:40;;;;;;;47.33;25.67;;;0.20;99.90;;;;;;5118350;28;20945;-69
2021/12/12 00:20:12;;;;;;;46.23;25.10;;;0.10;99.90;;;;;;5119870;28;20453;-69
2021/12/12 00:22:40;;;;;;;41.40;23.67;;;0.00;99.90;;;;;;5118393;28;20440;-67
2021/12/12 00:25:10;;;;;;;45.30;25.30;;;0.00;99.90;;;;;;5118007;28;20453;-69
2021/12/12 00:27:37;;;;;;;43.27;24.07;;;0.10;99.90;;;;;;5118197;28;20464;-69
2021/12/12 00:30:05;;;;;;;46.37;25.50;;;0.10;99.90;;;;;;5117455;28;20836;-68
2021/12/12 00:32:35;;;;;;;42.00;23.73;;;0.20;99.90;;;;;;5117312;28;20461;-68
2021/12/12 00:35:07;;;;;;;42.17;23.30;;;0.20;99.90;;;;;;5117012;28;20429;-70
2021/12/12 00:37:34;;;;;;;41.80;23.07;;;0.20;99.90;;;;;;5118272;27;20797;-70
2021/12/12 00:40:09;;;;;;;37.40;22.83;;;0.30;99.90;;;;;;5117783;28;20482;-68
2021/12/12 00:42:38;;;;;;;38.63;21.40;;;0.30;99.90;;;;;;5117034;28;20435;-68
2021/12/12 00:45:10;;;;;;;42.87;24.57;;;0.40;99.90;;;;;;5116635;28;20444;-68
2021/12/12 00:47:37;;;;;;;36.67;22.07;;;0.50;99.90;;;;;;5117069;28;20449;-68
2021/12/12 00:50:09;;;;;;;38.10;22.47;;;0.40;99.90;;;;;;5116874;28;20468;-69
2021/12/12 00:52:36;;;;;;;46.03;22.97;;;0.40;99.90;;;;;;5117581;28;20436;-68
2021/12/12 00:55:05;;;;;;;46.97;24.60;;;0.50;99.90;;;;;;5116962;28;20484;-70
2021/12/12 00:57:32;;;;;;;39.90;25.20;;;0.50;99.90;;;;;;5117048;27;20552;-68
2021/12/12 00:59:59;;;;;;;39.97;23.70;;;0.50;99.90;;;;;;5116698;28;20463;-67
2021/12/12 01:02:29;;;;;;;41.47;22.40;;;0.50;99.90;;;;;;5116961;28;20826;-68
2021/12/12 01:04:59;;;;;;;37.63;23.20;;;0.50;99.90;;;;;;5116884;28;20437;-68
2021/12/12 01:07:32;;;;;;;42.10;24.90;;;0.50;99.90;;;;;;5116576;28;20791;-68
2021/12/12 01:10:05;;;;;;;41.03;25.60;;;0.50;99.90;;;;;;5117252;28;20828;-68
2021/12/12 01:12:33;;;;;;;39.73;24.30;;;0.50;99.90;;;;;;5116822;28;20444;-68
2021/12/12 01:15:09;;;;;;;43.57;25.37;;;0.50;99.90;;;;;;5116088;28;20491;-68
2021/12/12 01:17:40;;;;;;;41.47;23.10;;;0.50;99.90;;;;;;5116564;28;20444;-68
2021/12/12 01:20:13;;;;;;;35.87;21.53;;;0.50;99.90;;;;;;5116241;28;20437;-68
2021/12/12 01:22:42;;;;;;;40.73;25.10;;;0.40;99.90;;;;;;5116673;28;20441;-69
2021/12/12 01:25:18;;;;;;;46.87;25.27;;;0.40;99.90;;;;;;5116941;28;20452;-69
2021/12/12 01:27:49;;;;;;;42.77;24.87;;;0.40;99.90;;;;;;5116694;28;20432;-68
2021/12/12 01:30:18;;;;;;;39.70;23.70;;;0.30;99.90;;;;;;5116867;28;20441;-69
2021/12/12 01:32:47;;;;;;;38.17;24.20;;;0.30;99.90;;;;;;5117019;28;20460;-69
2021/12/12 01:35:17;;;;;;;41.23;24.73;;;0.30;99.90;;;;;;5117013;28;20537;-69
2021/12/12 01:38:50;;;;;;;41.23;24.27;;;0.30;99.90;;;;;;5116553;28;20589;-68
2021/12/12 01:40:33;;;;;;;38.93;24.47;;;0.30;99.90;;;;;;5116001;28;20461;-68
2021/12/12 01:43:04;;;;;;;38.53;23.90;;;0.30;99.90;;;;;;5116261;28;20492;-68
2021/12/12 01:45:34;;;;;;;38.57;22.93;;;0.30;99.90;;;;;;5116107;28;20441;-68
2021/12/12 01:48:04;;;;;;;38.33;23.33;;;0.30;99.90;;;;;;5116031;28;20463;-68
2021/12/12 01:50:33;;;;;;;39.43;23.30;;;0.30;99.90;;;;;;5117151;28;20449;-68
2021/12/12 01:53:03;;;;;;;40.07;23.90;;;0.30;99.90;;;;;;5116013;28;20776;-69
2021/12/12 01:55:42;;;;;;;39.47;23.13;;;0.30;99.90;;;;;;5115326;28;20413;-68
2021/12/12 01:58:15;;;;;;;35.90;22.97;;;0.30;99.90;;;;;;5117019;28;20440;-68
2021/12/12 02:00:45;;;;;;;38.90;24.27;;;0.30;99.90;;;;;;5117086;28;20448;-68
2021/12/12 02:03:16;;;;;;;41.93;24.87;;;0.30;99.90;;;;;;5116147;28;20460;-68
2021/12/12 02:05:43;;;;;;;35.37;23.80;;;0.30;99.90;;;;;;5115844;28;20437;-69
2021/12/12 02:08:13;;;;;;;37.73;23.30;;;0.20;99.90;;;;;;5115923;28;20456;-68
2021/12/12 02:10:43;;;;;;;38.87;23.93;;;0.20;99.90;;;;;;5115786;28;20458;-67
2021/12/12 02:13:14;;;;;;;36.67;23.37;;;0.20;99.90;;;;;;5116266;28;20780;-68
2021/12/12 02:15:44;;;;;;;44.53;24.97;;;0.10;99.90;;;;;;5115529;28;20617;-68
2021/12/12 02:18:16;;;;;;;39.40;22.90;;;0.10;99.90;;;;;;5115534;28;20462;-68
2021/12/12 02:20:54;;;;;;;37.50;22.80;;;0.10;99.90;;;;;;5115342;28;20540;-69
2021/12/12 02:23:32;;;;;;;39.43;22.73;;;0.20;99.90;;;;;;5115385;28;20472;-69
2021/12/12 02:37:06;;;;;;;38.90;23.37;;;0.00;99.90;;;;;;5115511;28;20432;-69
2021/12/12 02:39:34;;;;;;;40.77;23.70;;;0.00;99.90;;;;;;5115631;28;20468;-69
2021/12/12 02:42:06;;;;;;;37.97;24.97;;;0.00;99.90;;;;;;5115837;28;20475;-69
2021/12/12 02:44:35;;;;;;;37.03;22.87;;;0.10;99.90;;;;;;5115776;28;20537;-69
2021/12/12 02:47:09;;;;;;;33.83;21.20;;;0.10;99.90;;;;;;5117003;28;20467;-69
2021/12/12 02:49:40;;;;;;;42.03;23.37;;;0.10;99.90;;;;;;5116310;28;20446;-69
2021/12/12 02:52:10;;;;;;;37.50;21.90;;;0.20;99.90;;;;;;5116373;28;20740;-69
2021/12/12 02:54:38;;;;;;;35.90;22.13;;;0.20;99.90;;;;;;5115089;28;20477;-68
2021/12/12 02:57:06;;;;;;;37.07;23.23;;;0.20;99.90;;;;;;5114686;28;20456;-69
2021/12/12 02:59:35;;;;;;;31.80;20.87;;;0.20;99.90;;;;;;5114833;28;20452;-68
2021/12/12 03:02:05;;;;;;;35.77;22.03;;;0.30;99.90;;;;;;5114418;28;20467;-68
2021/12/12 03:04:32;;;;;;;34.60;22.17;;;0.30;99.90;;;;;;5115238;28;20468;-68
2021/12/12 03:06:59;;;;;;;36.30;22.77;;;0.30;99.90;;;;;;5116018;28;20456;-68
2021/12/12 03:09:29;;;;;;;38.57;23.40;;;0.30;99.90;;;;;;5118768;28;20452;-67
2021/12/12 03:11:59;;;;;;;34.47;22.37;;;0.20;99.90;;;;;;5119159;28;20786;-68
2021/12/12 03:14:32;;;;;;;40.30;22.07;;;0.20;99.90;;;;;;5118619;28;20471;-68
2021/12/12 03:16:59;;;;;;;31.50;21.23;;;0.20;99.90;;;;;;5119156;28;20595;-68
2021/12/12 03:19:26;;;;;;;39.60;22.50;;;0.20;99.90;;;;;;5119086;28;20517;-68
2021/12/12 03:21:53;;;;;;;39.40;23.23;;;0.20;99.90;;;;;;5118779;28;20908;-67
2021/12/12 03:24:24;;;;;;;34.10;21.27;;;0.30;99.90;;;;;;5119218;28;20456;-68
2021/12/12 03:26:54;;;;;;;34.93;23.37;;;0.40;99.90;;;;;;5118595;28;20925;-67
2021/12/12 03:29:23;;;;;;;32.07;21.47;;;0.40;99.90;;;;;;5119013;28;20441;-68
2021/12/12 03:31:57;;;;;;;30.87;21.50;;;0.40;99.90;;;;;;5119019;28;20840;-68
2021/12/12 03:34:30;;;;;;;36.47;21.40;;;0.40;99.90;;;;;;5118935;28;20459;-68
2021/12/12 03:36:57;;;;;;;33.03;20.87;;;0.50;99.90;;;;;;5118299;28;20512;-69
2021/12/12 03:39:28;;;;;;;30.87;21.03;;;0.60;99.90;;;;;;5118423;28;20551;-69
2021/12/12 03:41:57;;;;;;;32.87;21.70;;;0.60;99.90;;;;;;5118594;28;20809;-69
2021/12/12 03:44:29;;;;;;;33.40;21.80;;;0.60;99.90;;;;;;5118551;28;20482;-69
2021/12/12 03:47:00;;;;;;;32.93;22.13;;;0.60;99.90;;;;;;5118209;27;20432;-69
2021/12/12 03:49:27;;;;;;;32.30;21.23;;;0.60;99.90;;;;;;5118473;28;20765;-69
2021/12/12 03:51:54;;;;;;;29.90;20.07;;;0.50;99.90;;;;;;5118765;28;20456;-69
2021/12/12 03:54:21;;;;;;;34.10;21.27;;;0.60;99.90;;;;;;5118388;28;20532;-69
2021/12/12 03:56:48;;;;;;;33.07;21.00;;;0.60;99.90;;;;;;5118081;28;20467;-69
2021/12/12 03:59:15;;;;;;;35.50;22.23;;;0.70;99.90;;;;;;5117789;28;20451;-69
2021/12/12 04:01:48;;;;;;;31.13;20.77;;;0.70;99.90;;;;;;5118157;28;20945;-69
2021/12/12 04:04:21;;;;;;;32.70;21.17;;;0.70;99.90;;;;;;5117976;28;20445;-69
2021/12/12 04:06:50;;;;;;;31.43;20.53;;;0.70;99.90;;;;;;5117985;28;20444;-68
2021/12/12 04:09:18;;;;;;;31.07;21.30;;;0.70;99.90;;;;;;5118129;28;20791;-68
2021/12/12 04:11:47;;;;;;;32.07;20.67;;;0.70;99.90;;;;;;5117952;28;20457;-69
2021/12/12 04:14:15;;;;;;;32.27;20.30;;;0.70;99.90;;;;;;5117459;28;20486;-68
2021/12/12 04:16:47;;;;;;;29.83;20.47;;;0.70;99.90;;;;;;5118052;28;20837;-67
2021/12/12 04:19:14;;;;;;;30.30;20.77;;;0.70;99.90;;;;;;5116741;28;20947;-69
2021/12/12 04:21:42;;;;;;;29.13;19.83;;;0.80;99.90;;;;;;5117539;28;20456;-69
2021/12/12 04:24:10;;;;;;;27.17;19.57;;;0.80;99.90;;;;;;5117471;28;20964;-68
2021/12/12 04:26:40;;;;;;;28.43;18.67;;;0.90;99.90;;;;;;5117971;28;20456;-68
2021/12/12 04:29:10;;;;;;;30.13;19.37;;;0.80;99.90;;;;;;5117873;28;20463;-68
2021/12/12 04:31:40;;;;;;;28.37;18.83;;;0.80;99.90;;;;;;5118292;28;20861;-68
2021/12/12 04:34:09;;;;;;;32.20;20.07;;;0.80;99.90;;;;;;5119380;28;20994;-68
2021/12/12 04:36:38;;;;;;;30.93;19.73;;;0.90;99.90;;;;;;5117827;28;20487;-67
2021/12/12 04:39:08;;;;;;;28.87;19.03;;;0.90;99.90;;;;;;5117927;28;20460;-69
2021/12/12 04:41:36;;;;;;;32.60;20.93;;;0.90;99.90;;;;;;5118129;28;20479;-68
2021/12/12 04:44:04;;;;;;;36.47;21.80;;;0.90;99.90;;;;;;5117451;28;20480;-68
2021/12/12 04:49:54;;;;;;;33.60;21.53;;;1.00;99.90;;;;;;5118759;28;20764;-67
2021/12/12 04:52:17;;;;;;;35.67;22.30;;;1.10;99.90;;;;;;5118250;28;20974;-69
2021/12/12 04:54:50;;;;;;;34.30;23.07;;;1.10;99.90;;;;;;5117234;28;20494;-71
2021/12/12 04:57:21;;;;;;;31.13;21.30;;;1.20;99.90;;;;;;5117420;28;20441;-68
2021/12/12 04:59:52;;;;;;;30.23;20.03;;;1.20;99.90;;;;;;5117371;28;20789;-68
2021/12/12 05:02:25;;;;;;;31.97;19.60;;;1.20;99.90;;;;;;5117176;28;20452;-69
2021/12/12 05:05:00;;;;;;;30.23;19.60;;;1.30;99.90;;;;;;5116893;28;20437;-68
2021/12/12 05:07:32;;;;;;;38.13;22.67;;;1.30;99.90;;;;;;5116947;28;20492;-68
2021/12/12 05:10:05;;;;;;;40.40;23.17;;;1.30;99.90;;;;;;5117094;28;20757;-68
2021/12/12 05:12:34;;;;;;;37.80;23.43;;;1.40;99.90;;;;;;5116832;28;20436;-68
2021/12/12 05:15:07;;;;;;;41.30;23.70;;;1.40;99.90;;;;;;5116504;28;20511;-68
2021/12/12 05:17:39;;;;;;;36.03;22.20;;;1.40;99.90;;;;;;5116510;28;20463;-69
2021/12/12 05:20:12;;;;;;;35.90;22.37;;;1.50;99.90;;;;;;5117131;28;20472;-70
2021/12/12 05:22:45;;;;;;;40.70;22.00;;;1.50;99.90;;;;;;5116219;28;20441;-69
2021/12/12 05:25:17;;;;;;;37.27;21.47;;;1.50;99.90;;;;;;5116821;28;20437;-69
2021/12/12 05:27:45;;;;;;;34.77;21.33;;;1.60;99.90;;;;;;5116721;28;20498;-68
2021/12/12 05:30:16;;;;;;;37.90;23.30;;;1.60;99.90;;;;;;5115484;28;20452;-69
2021/12/12 05:32:44;;;;;;;38.03;24.93;;;1.60;99.90;;;;;;5116348;28;20456;-68
2021/12/12 05:35:16;;;;;;;37.77;24.07;;;1.60;99.90;;;;;;5116441;28;20480;-68
2021/12/12 05:37:49;;;;;;;42.70;24.70;;;1.60;99.90;;;;;;5116525;28;20776;-69
2021/12/12 05:40:17;;;;;;;40.40;23.50;;;1.70;99.90;;;;;;5116395;28;20463;-68
2021/12/12 05:42:44;;;;;;;38.90;22.80;;;1.70;99.90;;;;;;5115875;28;20463;-69
2021/12/12 05:45:12;;;;;;;39.67;23.13;;;1.80;99.90;;;;;;5116263;28;20750;-69
2021/12/12 05:47:40;;;;;;;41.10;23.23;;;1.80;99.90;;;;;;5116371;28;20456;-69
2021/12/12 05:50:09;;;;;;;39.53;24.43;;;1.80;99.90;;;;;;5116049;28;20456;-69
2021/12/12 05:52:37;;;;;;;36.97;23.37;;;1.70;99.90;;;;;;5115957;28;20452;-69
2021/12/12 05:55:07;;;;;;;41.53;23.73;;;1.80;99.90;;;;;;5115858;28;20476;-69
2021/12/12 05:57:35;;;;;;;44.57;25.33;;;1.80;99.90;;;;;;5115799;28;20452;-69
2021/12/12 06:00:07;;;;;;;42.03;23.00;;;1.80;99.90;;;;;;5116006;28;20460;-69
2021/12/12 06:02:34;;;;;;;37.67;23.70;;;1.80;99.90;;;;;;5115676;28;20447;-69
2021/12/12 06:05:01;;;;;;;42.97;22.17;;;1.70;99.90;;;;;;5115751;28;20787;-69
2021/12/12 06:07:29;;;;;;;37.03;21.87;;;1.70;99.90;;;;;;5115696;28;20460;-69
2021/12/12 06:09:58;;;;;;;38.83;21.80;;;1.70;99.90;;;;;;5115802;28;20776;-69
2021/12/12 06:12:26;;;;;;;41.00;20.90;;;1.70;99.90;;;;;;5115715;28;20468;-69
2021/12/12 06:14:54;;;;;;;37.53;20.17;;;1.60;99.90;;;;;;5115879;28;20484;-70
2021/12/12 06:17:22;;;;;;;34.57;21.10;;;1.50;99.90;;;;;;5115452;28;20924;-70
2021/12/12 06:19:51;;;;;;;35.00;21.87;;;1.50;99.90;;;;;;5115764;28;20497;-68
2021/12/12 06:22:22;;;;;;;36.40;22.70;;;1.40;99.90;;;;;;5115624;28;20495;-68
2021/12/12 06:24:50;;;;;;;35.00;21.83;;;1.40;99.90;;;;;;5115597;28;20823;-68
2021/12/12 06:27:21;;;;;;;38.97;22.80;;;1.40;99.90;;;;;;5114931;28;20459;-69
2021/12/12 06:29:50;;;;;;;35.17;22.30;;;1.40;99.90;;;;;;5115075;28;20436;-69
2021/12/12 06:32:17;;;;;;;35.60;23.10;;;1.40;99.90;;;;;;5115052;28;20460;-69
2021/12/12 06:34:45;;;;;;;39.03;22.53;;;1.40;99.90;;;;;;5115283;28;20456;-69
2021/12/12 06:37:14;;;;;;;33.27;22.10;;;1.30;99.90;;;;;;5114692;28;20460;-68
2021/12/12 06:39:41;;;;;;;30.53;21.47;;;1.30;99.90;;;;;;5115157;28;20559;-68
2021/12/12 06:42:12;;;;;;;34.63;22.50;;;1.30;99.90;;;;;;5114364;28;20905;-68
2021/12/12 06:44:42;;;;;;;35.47;22.43;;;1.20;99.90;;;;;;5114761;28;20956;-68
2021/12/12 06:47:10;;;;;;;31.90;22.37;;;1.20;99.90;;;;;;5115452;28;20456;-68
2021/12/12 06:49:38;;;;;;;35.53;21.30;;;1.30;99.90;;;;;;5115001;28;20525;-68
2021/12/12 06:52:08;;;;;;;31.37;20.80;;;1.30;99.90;;;;;;5115120;28;20464;-68
2021/12/12 06:54:36;;;;;;;25.80;18.17;;;1.30;99.90;;;;;;5115004;28;20801;-68
2021/12/12 06:57:05;;;;;;;38.73;21.70;;;1.20;99.90;;;;;;5114861;28;20783;-68
2021/12/12 06:59:35;;;;;;;39.73;21.20;;;1.00;99.90;;;;;;5115194;28;20818;-69
2021/12/12 07:02:05;;;;;;;34.20;21.80;;;1.10;99.90;;;;;;5115117;28;20822;-69
2021/12/12 07:04:32;;;;;;;37.63;21.80;;;1.00;99.90;;;;;;5115037;28;20460;-68
2021/12/12 07:07:02;;;;;;;34.10;20.43;;;0.90;99.90;;;;;;5114782;28;20940;-69
2021/12/12 07:09:31;;;;;;;34.50;20.77;;;0.80;99.90;;;;;;5114593;28;20440;-69
2021/12/12 07:12:00;;;;;;;30.63;21.37;;;0.80;99.90;;;;;;5114473;28;20460;-69
2021/12/12 07:14:27;;;;;;;29.70;20.23;;;0.80;99.90;;;;;;5114875;28;20539;-69
2021/12/12 07:16:56;;;;;;;36.17;21.13;;;0.80;99.90;;;;;;5114257;28;20476;-68
2021/12/12 07:19:25;;;;;;;33.60;21.47;;;0.70;99.90;;;;;;5114703;28;20471;-68
2021/12/12 07:21:52;;;;;;;27.17;19.23;;;0.80;99.90;;;;;;5114644;28;20456;-68
2021/12/12 07:24:20;;;;;;;30.30;20.63;;;0.90;99.90;;;;;;5115014;28;20508;-68
2021/12/12 07:26:47;;;;;;;29.83;20.97;;;0.70;99.90;;;;;;5114806;28;20923;-69
2021/12/12 07:29:14;;;;;;;34.13;21.70;;;0.70;99.90;;;;;;5114873;28;20457;-68
2021/12/12 07:31:42;;;;;;;32.10;19.70;;;0.70;99.90;;;;;;5115086;28;20449;-68
2021/12/12 07:34:12;;;;;;;32.40;22.23;;;0.70;99.90;;;;;;5114879;28;20453;-68
2021/12/12 07:36:44;;;;;;;32.13;20.63;;;0.80;99.90;;;;;;5114652;28;20560;-69
2021/12/12 07:39:13;;;;;;;36.80;21.83;;;0.70;99.90;;;;;;5114882;28;20436;-68
2021/12/12 07:41:43;;;;;;;34.07;21.47;;;0.80;99.90;;;;;;5114574;28;20460;-69
2021/12/12 07:44:12;;;;;;;34.30;21.77;;;0.80;99.90;;;;;;5114235;28;20975;-69
2021/12/12 07:46:39;;;;;;;34.97;20.67;;;0.80;99.90;;;;;;5114696;28;20459;-69
2021/12/12 07:49:07;;;;;;;34.43;21.23;;;0.80;99.90;;;;;;5114552;28;20457;-69
2021/12/12 07:51:36;;;;;;;38.50;21.70;;;0.80;99.90;;;;;;5114203;28;20452;-69
2021/12/12 07:54:07;;;;;;;30.80;21.73;;;0.80;99.90;;;;;;5115390;28;20467;-69
2021/12/12 07:56:37;;;;;;;31.10;20.90;;;0.80;99.90;;;;;;5118471;28;20473;-68
2021/12/12 07:59:06;;;;;;;37.57;22.70;;;0.90;99.90;;;;;;5118693;28;20441;-68
2021/12/12 08:01:35;;;;;;;36.57;21.53;;;0.90;99.90;;;;;;5118230;28;20460;-68
2021/12/12 08:04:02;;;;;;;35.53;22.33;;;0.90;99.90;;;;;;5118851;28;20913;-68
2021/12/12 08:06:30;;;;;;;30.30;20.13;;;0.90;99.90;;;;;;5118701;28;20452;-70
2021/12/12 08:08:58;;;;;;;35.27;21.63;;;1.00;99.90;;;;;;5117755;28;20460;-68
2021/12/12 08:11:29;;;;;;;32.07;20.43;;;1.00;99.90;;;;;;5118076;28;20606;-68
2021/12/12 08:13:57;;;;;;;36.30;21.40;;;1.00;99.90;;;;;;5117840;28;20445;-68
2021/12/12 08:16:24;;;;;;;28.67;19.57;;;1.00;99.90;;;;;;5118239;28;20507;-69
2021/12/12 08:18:51;;;;;;;36.13;22.03;;;1.00;99.90;;;;;;5119153;28;20490;-69
2021/12/12 08:21:21;;;;;;;39.23;21.87;;;1.00;99.90;;;;;;5121201;28;20461;-69
2021/12/12 08:23:48;;;;;;;32.40;20.67;;;1.10;99.90;;;;;;5117832;28;20441;-69
2021/12/12 08:26:15;;;;;;;39.30;20.90;;;1.00;99.90;;;;;;5118031;28;20777;-69
2021/12/12 08:28:44;;;;;;;37.03;21.77;;;1.00;99.90;;;;;;5117668;28;20476;-68
2021/12/12 08:31:12;;;;;;;36.57;22.50;;;1.10;99.90;;;;;;5117714;28;20921;-68
2021/12/12 08:33:39;;;;;;;40.57;24.33;;;1.20;99.90;;;;;;5117254;28;20952;-68
2021/12/12 08:36:06;;;;;;;34.30;22.33;;;1.10;99.90;;;;;;5117463;28;20476;-68
2021/12/12 08:38:33;;;;;;;36.03;21.17;;;1.20;99.90;;;;;;5117621;28;20461;-69
2021/12/12 08:41:03;;;;;;;33.90;21.30;;;1.20;99.90;;;;;;5117208;28;20735;-68
2021/12/12 08:43:31;;;;;;;34.53;21.97;;;1.20;99.90;;;;;;5116847;28;20847;-68
2021/12/12 08:46:02;;;;;;;34.03;21.77;;;1.30;99.90;;;;;;5117047;28;20453;-68
2021/12/12 08:48:32;;;;;;;36.97;22.03;;;1.30;99.90;;;;;;5117460;28;20441;-69
2021/12/12 08:51:02;;;;;;;36.63;21.83;;;1.30;99.90;;;;;;5117661;28;20468;-69
2021/12/12 08:53:29;;;;;;;36.53;21.87;;;1.30;99.90;;;;;;5120414;27;20441;-69
2021/12/12 08:55:59;;;;;;;32.73;20.60;;;1.40;99.90;;;;;;5118656;28;20846;-68
2021/12/12 08:58:30;;;;;;;30.80;20.93;;;1.50;99.90;;;;;;5117473;28;20927;-68
2021/12/12 09:01:01;;;;;;;37.13;22.83;;;1.50;99.90;;;;;;5118185;28;20447;-67
2021/12/12 09:03:33;;;;;;;33.13;21.70;;;1.50;99.90;;;;;;5117219;28;20555;-67
2021/12/12 09:06:00;;;;;;;38.90;21.13;;;1.50;99.90;;;;;;5116614;28;20524;-67
2021/12/12 09:08:36;;;;;;;41.23;22.87;;;1.50;99.90;;;;;;5117226;28;20509;-67
2021/12/12 09:11:08;;;;;;;38.77;22.27;;;1.60;99.90;;;;;;5116948;28;20521;-67
2021/12/12 09:13:43;;;;;;;32.93;21.13;;;1.60;99.90;;;;;;5116986;28;20784;-67
2021/12/12 09:16:17;;;;;;;41.23;23.03;;;1.70;99.90;;;;;;5116678;28;20544;-67
2021/12/12 09:18:47;;;;;;;31.70;20.97;;;1.80;99.90;;;;;;5116550;28;20480;-67
2021/12/12 09:21:23;;;;;;;37.30;23.10;;;1.90;99.90;;;;;;5116356;28;20441;-67
2021/12/12 09:24:01;;;;;;;32.77;20.97;;;1.90;99.90;;;;;;5116358;28;20444;-68
2021/12/12 09:26:29;;;;;;;27.83;19.57;;;2.00;99.90;;;;;;5116823;28;20433;-67
2021/12/12 09:29:02;;;;;;;29.37;20.67;;;1.90;99.90;;;;;;5116664;28;20452;-67
2021/12/12 09:31:39;;;;;;;32.70;19.63;;;2.00;99.90;;;;;;5116561;28;20437;-67
2021/12/12 09:34:09;;;;;;;29.73;19.40;;;2.10;99.90;;;;;;5117406;28;20441;-67
2021/12/12 09:36:40;;;;;;;31.70;19.40;;;2.10;99.90;;;;;;5117149;28;20469;-67
2021/12/12 09:39:09;;;;;;;31.13;20.17;;;2.20;99.90;;;;;;5116320;28;20467;-67
2021/12/12 09:41:56;;;;;;;33.83;19.43;;;2.20;99.90;;;;;;5116196;28;20461;-67
2021/12/12 09:44:55;;;;;;;29.57;19.67;;;2.30;99.90;;;;;;5116167;28;20480;-67
2021/12/12 09:47:58;;;;;;;34.37;20.13;;;2.30;99.90;;;;;;5116126;28;20447;-67
2021/12/12 09:53:30;;;;;;;30.97;20.77;;;2.30;99.90;;;;;;5116174;28;20416;-67
2021/12/12 09:56:05;;;;;;;33.10;20.20;;;2.30;99.90;;;;;;5115856;28;20479;-67
2021/12/12 09:58:43;;;;;;;35.43;20.50;;;2.40;99.90;;;;;;5115820;28;20436;-67
2021/12/12 10:01:14;;;;;;;29.20;19.40;;;2.50;99.90;;;;;;5115592;28;20478;-67
2021/12/12 10:04:03;;;;;;;31.70;18.97;;;2.50;99.90;;;;;;5115421;28;20777;-67
2021/12/12 10:06:35;;;;;;;34.17;19.00;;;2.60;99.90;;;;;;5115558;28;20441;-67
2021/12/12 10:09:07;;;;;;;32.67;19.97;;;2.50;99.90;;;;;;5115796;28;20502;-66
2021/12/12 10:11:40;;;;;;;32.87;19.90;;;2.60;99.90;;;;;;5115022;28;20455;-67
2021/12/12 10:14:13;;;;;;;33.10;20.00;;;2.60;99.90;;;;;;5115674;28;20522;-67
2021/12/12 10:16:49;;;;;;;31.83;19.90;;;2.60;99.90;;;;;;5114821;28;20475;-67
2021/12/12 10:19:29;;;;;;;30.13;18.27;;;2.60;99.90;;;;;;5115246;28;20963;-67
2021/12/12 10:22:15;;;;;;;32.63;19.40;;;2.70;99.90;;;;;;5115192;28;20451;-67
2021/12/12 10:24:48;;;;;;;33.33;20.10;;;2.70;99.90;;;;;;5112682;28;20476;-67
2021/12/12 10:27:21;;;;;;;33.80;21.27;;;2.70;99.90;;;;;;5115635;28;20433;-67
2021/12/12 10:29:57;;;;;;;33.20;21.20;;;2.80;99.90;;;;;;5115330;28;20460;-67
2021/12/12 10:32:27;;;;;;;27.93;17.83;;;2.80;99.90;;;;;;5114941;28;20446;-67
2021/12/12 10:35:01;;;;;;;36.00;20.63;;;2.80;99.90;;;;;;5115343;28;20455;-67
2021/12/12 10:37:33;;;;;;;31.93;20.13;;;2.80;99.90;;;;;;5115068;28;20772;-67
2021/12/12 10:40:07;;;;;;;31.20;20.03;;;2.80;99.90;;;;;;5114727;28;20452;-67
2021/12/12 10:42:42;;;;;;;34.00;18.90;;;2.80;99.90;;;;;;5115165;28;20435;-67
2021/12/12 10:45:12;;;;;;;30.83;18.80;;;2.80;99.90;;;;;;5074659;28;20449;-68
2021/12/12 10:47:50;;;;;;;34.30;20.10;;;2.70;99.90;;;;;;5074575;28;20457;-67
2021/12/12 10:50:25;;;;;;;32.43;20.63;;;2.70;99.90;;;;;;5074233;28;20445;-67
2021/12/12 10:52:57;;;;;;;35.70;18.37;;;2.70;99.90;;;;;;5075072;28;20434;-66
2021/12/12 10:55:33;;;;;;;34.63;21.40;;;2.70;99.90;;;;;;5074621;28;20450;-67
2021/12/12 10:58:06;;;;;;;30.27;19.50;;;2.80;99.90;;;;;;5074498;28;20465;-67
2021/12/12 11:00:37;;;;;;;29.93;19.03;;;2.90;99.90;;;;;;5074509;28;20438;-67
2021/12/12 11:03:09;;;;;;;33.83;21.27;;;3.00;99.90;;;;;;5074034;28;20443;-67
2021/12/12 11:05:40;;;;;;;30.77;20.00;;;3.00;99.90;;;;;;5074574;28;20497;-67
2021/12/12 11:08:11;;;;;;;32.47;19.13;;;3.00;99.90;;;;;;5074308;28;20500;-67
2021/12/12 11:10:47;;;;;;;34.70;20.70;;;2.90;99.90;;;;;;5075691;28;20435;-68
2021/12/12 11:13:18;;;;;;;31.40;19.50;;;2.90;99.90;;;;;;5077343;28;20729;-68
2021/12/12 11:15:50;;;;;;;34.73;18.80;;;2.90;99.90;;;;;;5075171;28;20461;-68
2021/12/12 11:18:25;;;;;;;28.40;19.23;;;3.00;99.90;;;;;;5074383;28;20462;-68
2021/12/12 11:20:55;;;;;;;34.60;20.23;;;3.00;99.90;;;;;;5074149;28;20470;-68
2021/12/12 11:23:29;;;;;;;32.17;19.90;;;3.00;99.90;;;;;;5074529;28;20903;-68
2021/12/12 11:25:58;;;;;;;33.20;20.37;;;3.10;99.90;;;;;;5074612;28;20442;-68
2021/12/12 11:28:29;;;;;;;34.03;20.43;;;3.00;99.90;;;;;;5075996;28;20454;-68
2021/12/12 11:30:59;;;;;;;32.60;19.20;;;3.10;99.90;;;;;;5078429;28;20731;-67
2021/12/12 11:33:28;;;;;;;30.73;20.97;;;3.00;99.90;;;;;;5078389;28;20469;-69
2021/12/12 11:35:57;;;;;;;32.83;20.20;;;3.00;99.90;;;;;;5078476;28;20458;-67
2021/12/12 11:38:36;;;;;;;31.07;20.77;;;3.00;99.90;;;;;;5077819;28;20569;-67
2021/12/12 11:41:10;;;;;;;33.70;19.73;;;3.00;99.90;;;;;;5077511;28;20473;-67
2021/12/12 11:43:41;;;;;;;35.50;20.60;;;3.00;99.90;;;;;;5094909;28;21003;-68
2021/12/12 11:46:13;;;;;;;33.60;20.13;;;3.00;99.90;;;;;;5118640;27;20903;-67
2021/12/12 11:48:50;;;;;;;34.00;21.57;;;3.00;99.90;;;;;;5118556;28;20437;-67
2021/12/12 11:51:25;;;;;;;32.37;20.37;;;3.00;99.90;;;;;;5118363;28;20531;-67
2021/12/12 11:53:56;;;;;;;37.33;21.73;;;2.90;99.90;;;;;;5118105;28;20535;-68
2021/12/12 11:56:26;;;;;;;31.80;19.67;;;2.90;99.90;;;;;;5118297;28;20456;-67
2021/12/12 11:59:03;;;;;;;38.50;21.37;;;2.90;99.90;;;;;;5118505;28;20451;-67
2021/12/12 12:01:37;;;;;;;38.83;22.87;;;2.90;99.90;;;;;;5118521;28;20433;-67
2021/12/12 12:04:14;;;;;;;31.00;19.40;;;2.90;99.90;;;;;;5118128;28;20923;-67
2021/12/12 12:07:10;;;;;;;34.20;19.63;;;2.80;99.90;;;;;;5118515;28;20892;-68
2021/12/12 12:10:05;;;;;;;32.70;21.07;;;2.90;99.90;;;;;;5118286;28;20437;-68
2021/12/12 12:12:52;;;;;;;36.80;21.93;;;2.90;99.90;;;;;;5117708;28;20897;-67
2021/12/12 12:15:26;;;;;;;30.67;21.17;;;3.00;99.90;;;;;;5117986;28;20553;-66
2021/12/12 12:18:02;;;;;;;34.97;21.33;;;3.10;99.90;;;;;;5117762;28;20934;-67
2021/12/12 12:20:37;;;;;;;34.33;20.03;;;3.00;99.90;;;;;;5117953;28;20455;-68
2021/12/12 12:23:18;;;;;;;36.83;21.57;;;3.10;99.90;;;;;;5117841;28;20753;-67
2021/12/12 12:28:42;;;;;;;31.63;19.10;;;3.20;99.90;;;;;;5118038;28;20547;-66
2021/12/12 12:31:47;;;;;;;28.00;18.80;;;3.40;99.90;;;;;;5117577;28;20471;-67
2021/12/12 12:34:49;;;;;;;30.27;18.13;;;3.50;99.90;;;;;;5117210;28;20463;-67
2021/12/12 12:37:53;;;;;;;29.63;17.60;;;3.50;99.90;;;;;;5095035;27;20472;-68
2021/12/12 12:40:56;;;;;;;31.10;19.83;;;3.60;99.90;;;;;;5117543;28;20467;-68
2021/12/12 12:44:05;;;;;;;26.63;16.93;;;3.60;99.90;;;;;;5088369;28;20479;-68
2021/12/12 12:47:23;;;;;;;23.50;15.90;;;3.70;99.90;;;;;;5119646;28;20459;-68
2021/12/12 12:53:12;;;;;;;25.30;17.07;;;3.80;99.90;;;;;;5134162;27;20619;-67
2021/12/12 12:56:24;;;;;;;28.10;16.67;;;3.80;99.90;;;;;;5134201;28;20516;-68
2021/12/12 12:59:19;;;;;;;28.27;17.03;;;3.90;99.90;;;;;;5134759;28;20523;-67
2021/12/12 13:01:55;;;;;;;23.23;13.93;;;3.80;99.90;;;;;;5133129;28;20432;-67
2021/12/12 13:04:27;;;;;;;26.90;15.10;;;3.70;99.90;;;;;;5133224;28;20451;-68
2021/12/12 13:07:09;;;;;;;25.10;16.30;;;3.60;99.90;;;;;;5132584;28;20443;-68
2021/12/12 13:09:51;;;;;;;28.07;16.80;;;3.50;99.90;;;;;;5133235;28;20432;-67
2021/12/12 13:12:54;;;;;;;27.17;16.63;;;3.50;99.90;;;;;;5132831;28;20491;-67
2021/12/12 13:15:35;;;;;;;26.90;16.40;;;3.60;99.90;;;;;;5116910;27;20451;-68
2021/12/12 13:18:16;;;;;;;21.10;14.53;;;3.60;99.90;;;;;;5133047;27;20440;-69
2021/12/12 13:20:56;;;;;;;28.77;16.30;;;3.60;99.90;;;;;;5132979;27;20436;-68
2021/12/12 13:23:53;;;;;;;28.97;16.10;;;3.60;99.90;;;;;;5132285;27;20439;-68